Flight Track Log - Related Links

Times and Time Zones

All times are in EDT time to prevent confusion due to time zone crossing. See the RPA3242 flight status page for this flight to view local times or setup timezone preferences in your user account.

Time Position Orientation Groundspeed Altitude Reporting Facility
EDT Latitude Longitude Course Direction KTS MPH feet Rate Location/Type
Fri 09:29:01 PM 39.8667 -75.2833 37° Northeast 162 186 800  Level Philadelphia TRACON
Fri 09:29:55 PM 39.8333 -75.3167 218° Southwest 221 254 2,700 2,368 Climbing Philadelphia TRACON
Fri 09:30:55 PM 39.7667 -75.3667 210° Southwest 260 299 5,300 2,850 Climbing Philadelphia TRACON
Fri 09:31:00 PM 39.8090 -74.8281 105° East  Level FlightAware Approximate
Fri 09:31:55 PM 39.7000 -75.3833 191° South 306 352 8,400  Level Philadelphia TRACON
Fri 09:32:00 PM 39.7885 -74.6948 37° Northeast  Level FlightAware Approximate
Fri 09:32:55 PM 39.6667 -75.2833 113° Southeast 334 384 10,900  Level Philadelphia TRACON
Fri 09:33:00 PM 39.8744 -74.6090 37° Northeast  Level FlightAware Approximate
Fri 09:34:00 PM 39.9637 -74.5363 37° Northeast  Level FlightAware Approximate
Fri 09:35:17 PM 39.7292 -75.0006 74° East 371 427 12,000  Level New York Center
Fri 09:36:19 PM 39.7586 -74.8756 73° East 371 427 12,000  Level New York Center
Fri 09:37:17 PM 39.7856 -74.7581 73° East 371 427 12,000 1,424 Level New York Center
Fri 09:38:17 PM 39.8600 -74.6542 47° Northeast 354 407 14,800 2,331 Climbing New York Center
Fri 09:39:18 PM 39.9419 -74.5722 37° Northeast 352 405 16,700 1,636 Climbing New York Center
Fri 09:40:18 PM 40.0086 -74.5053 38° Northeast 363 418 18,100 1,765 Climbing New York Center
Fri 09:41:17 PM 40.1139 -74.4025 37° Northeast 379 436 20,200 1,866 Climbing New York Center
Fri 09:42:17 PM 40.2000 -74.3144 38° Northeast 384 442 21,800 1,450 Climbing New York Center
Fri 09:43:17 PM 40.2903 -74.2267 37° Northeast 395 455 23,100 1,082 Climbing New York Center
Fri 09:44:19 PM 40.3881 -74.1553 29° Northeast 400 460 24,000 446 Climbing New York Center
Fri 09:45:18 PM 40.4881 -74.0839 28° Northeast 406 467 24,000  Level New York Center
Fri 09:46:19 PM 40.5858 -74.0119 29° Northeast 406 467 24,000  Level New York Center
Fri 09:48:32 PM 40.7972 -73.8575 29° Northeast 409 471 24,000  Level Boston Center
Fri 09:49:32 PM 40.8858 -73.7606 40° Northeast 409 471 24,000 -400 Level Boston Center
Fri 09:50:32 PM 40.9883 -73.7325 12° North 377 434 23,200 -900 Descending Boston Center
Fri 09:51:32 PM 41.0928 -73.7125 North 372 428 22,200 -1,000 Descending Boston Center
Fri 09:52:44 PM 41.2286 -73.6875 North 372 428 21,000 -1,000 Descending Boston Center
Fri 09:53:44 PM 41.3331 -73.6647 North 377 434 20,000 -1,000 Descending Boston Center
Fri 09:54:44 PM 41.4311 -73.6500 North 372 428 19,000 -950 Descending Boston Center
Fri 09:55:44 PM 41.5208 -73.6322 North 358 412 18,100 -900 Descending Boston Center
Fri 09:56:44 PM 41.6317 -73.6122 North 351 404 17,200 -909 Descending Boston Center
Fri 09:57:56 PM 41.7297 -73.5944 North 351 404 16,100 -955 Descending Boston Center
Fri 09:58:56 PM 41.8361 -73.5769 North 351 404 15,100 -1,059 Descending Boston Center
Fri 09:59:55 PM 41.9425 -73.5564 North 344 396 14,000 -1,063 Descending Boston Center
Fri 10:00:32 PM 41.9928 -73.5461 North 337 388 13,400 -885 Descending Boston Center
Fri 10:00:56 PM 42.0219 -73.5411 North 335 386 13,100 -1,100 Descending Boston Center
Fri 10:01:32 PM 42.0931 -73.5311 North 331 381 12,300 -1,100 Descending Boston Center
Fri 10:01:56 PM 42.1219 -73.5400 347° North 330 380 12,000 -984 Descending Boston Center
Fri 10:02:33 PM 42.1697 -73.5633 340° North 281 323 11,300 -1,000 Descending Boston Center
Fri 10:02:56 PM 42.1925 -73.5806 331° Northwest 302 348 11,000 -590 Descending Boston Center
Fri 10:03:34 PM 42.2361 -73.6094 334° Northwest 259 298 10,700 -1,100 Descending Boston Center
Fri 10:03:56 PM 42.2589 -73.6239 335° Northwest 275 316 9,900 -2,100 Descending Boston Center
Fri 10:04:34 PM 42.3003 -73.6472 337° Northwest 262 302 8,600 -1,800 Descending Boston Center
Fri 10:04:56 PM 42.3147 -73.6531 343° North 270 311 8,100 -2,262 Descending Boston Center
Fri 10:05:35 PM 42.3706 -73.6850 337° Northwest 269 310 6,300 -2,700 Descending Boston Center
Fri 10:05:56 PM 42.3975 -73.6997 338° Northwest 265 305 5,400 -2,164 Descending Boston Center
Fri 10:06:36 PM 42.4369 -73.7286 332° Northwest 268 308 4,100 -1,600 Descending Boston Center
Fri 10:06:56 PM 42.4494 -73.7317 350° North 260 299 3,800 -1,100 Descending Boston Center
Fri 10:07:36 PM 42.5053 -73.7667 335° Northwest 262 302 3,000 -800 Descending Boston Center
Fri 10:07:56 PM 42.5258 -73.7783 337° Northwest 250 288 3,000  Level Boston Center
Fri 10:08:37 PM 42.5631 -73.8017 335° Northwest 203 234 3,000  Level Boston Center
Fri 10:08:56 PM 42.5797 -73.7992 North 221 254 3,000 -500 Level Boston Center
Fri 10:09:37 PM 42.6194 -73.8000 359° North 194 223 2,500 -600 Descending Boston Center
Fri 10:09:56 PM 42.6278 -73.8031 345° North 202 232 2,400 -316 Descending Boston Center

Login

Don't have an account? Register now (free) for customized features, flight alerts, and more!